Terminal Aerodrome Forecast
Issued by NWS

Home | Current Version | Previous Version | Text Only | Print | Product List | Glossary On
Versions: 1 2 3 4 5 6 7 8 9 10 11 12 13 14
067
FTAK31 PAJN 261720
TAFAJN
TAF
PAJN 261720Z 2618/2718 08008KT P6SM VCSH FEW005 SCT020 OVC030
      TEMPO 2618/2621 6SM -SHRA BR FEW005 BKN020 OVC030
     FM262100 VRB05KT P6SM VCSH SCT030 OVC050
     FM270700 08004KT P6SM VCSH BKN030 OVC050=

USA.gov is the U.S. government's official web portal to all federal, state and local government web resources and services.